Time;durP1;ratioP1;P1;durP2;ratioP2;P2;SDS_P1;SDS_P2;PMS_P1;PMS_P2;Temp;Humidity;BMP_temperature;BMP_pressure;BME280_temperature;BME280_humidity;BME280_pressure;Samples;Min_cycle;Max_cycle;Signal;HPM_P1;HPM_P2
2023/07/05 00:01:13;;;;;;;;;;;20.00;70.00;;;;;;5079302;28;19976;-86
2023/07/05 00:03:41;;;;;;;;;;;20.00;71.00;;;;;;5081239;28;20279;-90
2023/07/05 00:06:06;;;;;;;;;;;20.10;71.30;;;;;;5068876;28;19913;-84
2023/07/05 00:08:33;;;;;;;;;;;20.10;71.50;;;;;;5082385;28;19931;-85
2023/07/05 00:11:03;;;;;;;;;;;20.10;71.30;;;;;;5076282;28;19921;-82
2023/07/05 00:13:28;;;;;;;;;;;20.10;71.30;;;;;;5074469;28;19935;-81
2023/07/05 00:15:54;;;;;;;;;;;20.00;71.30;;;;;;5068072;28;19909;-86
2023/07/05 00:18:20;;;;;;;;;;;20.00;71.00;;;;;;5082035;28;20037;-87
2023/07/05 00:20:45;;;;;;;;;;;19.90;71.30;;;;;;5079831;28;19913;-84
2023/07/05 00:23:11;;;;;;;;;;;19.90;72.00;;;;;;5085685;28;19912;-87
2023/07/05 00:25:37;;;;;;;;;;;20.00;72.30;;;;;;5054645;28;19912;-88
2023/07/05 00:28:03;;;;;;;;;;;19.90;71.70;;;;;;5054541;28;19909;-87
2023/07/05 00:30:29;;;;;;;;;;;19.90;72.00;;;;;;5049927;28;19929;-86
2023/07/05 00:32:54;;;;;;;;;;;19.90;72.70;;;;;;5042397;28;19913;-84
2023/07/05 00:35:20;;;;;;;;;;;19.90;72.40;;;;;;5058554;28;19915;-84
2023/07/05 00:37:46;;;;;;;;;;;19.80;73.00;;;;;;5059112;28;19913;-83
2023/07/05 00:40:11;;;;;;;;;;;19.80;73.20;;;;;;5053935;28;19909;-84
2023/07/05 00:42:38;;;;;;;;;;;19.80;73.40;;;;;;5035720;28;19913;-86
2023/07/05 00:45:09;;;;;;;;;;;19.80;73.30;;;;;;5054925;28;19955;-83
2023/07/05 00:47:36;;;;;;;;;;;19.80;73.60;;;;;;5036059;28;20371;-85
2023/07/05 00:50:10;;;;;;;;;;;19.80;73.50;;;;;;5044797;28;19927;-86
2023/07/05 00:52:36;;;;;;;;;;;19.80;73.40;;;;;;5052063;28;19940;-84
2023/07/05 00:55:02;;;;;;;;;;;19.70;73.10;;;;;;5052776;28;19950;-85
2023/07/05 00:57:29;;;;;;;;;;;19.70;73.10;;;;;;5054760;28;19913;-86
2023/07/05 00:59:57;;;;;;;;;;;19.70;73.10;;;;;;5054872;28;19963;-89
2023/07/05 01:08:36;;;;;;;;;;;19.60;73.10;;;;;;5078317;28;19920;-87
2023/07/05 01:11:20;;;;;;;;;;;19.60;73.30;;;;;;5077007;28;19968;-86
2023/07/05 01:13:53;;;;;;;;;;;19.60;73.20;;;;;;5069411;28;19917;-85
2023/07/05 01:16:27;;;;;;;;;;;19.60;73.40;;;;;;5074009;28;19908;-83
2023/07/05 01:18:58;;;;;;;;;;;19.50;73.30;;;;;;5069744;28;20006;-84
2023/07/05 01:21:27;;;;;;;;;;;19.50;73.30;;;;;;5069741;28;19940;-83
2023/07/05 01:24:08;;;;;;;;;;;19.60;73.30;;;;;;5089686;28;19912;-82
2023/07/05 01:26:55;;;;;;;;;;;19.50;73.40;;;;;;5079735;28;19943;-81
2023/07/05 01:29:50;;;;;;;;;;;19.60;74.30;;;;;;5076042;28;20285;-83
2023/07/05 01:32:15;;;;;;;;;;;19.60;73.80;;;;;;5032894;28;19939;-83
2023/07/05 01:34:42;;;;;;;;;;;19.60;74.20;;;;;;5073895;28;20335;-81
2023/07/05 01:37:09;;;;;;;;;;;19.70;74.40;;;;;;5075774;28;19962;-82
2023/07/05 01:39:35;;;;;;;;;;;19.70;74.00;;;;;;5079236;28;19943;-82
2023/07/05 01:42:01;;;;;;;;;;;19.80;73.80;;;;;;5072044;28;20309;-82
2023/07/05 01:44:27;;;;;;;;;;;19.80;73.80;;;;;;5085056;28;19919;-84
2023/07/05 01:47:11;;;;;;;;;;;19.70;73.70;;;;;;5060681;28;19913;-83
2023/07/05 01:49:40;;;;;;;;;;;19.80;73.90;;;;;;5081539;28;19992;-82
2023/07/05 01:52:09;;;;;;;;;;;19.80;74.10;;;;;;5083186;28;19915;-84
2023/07/05 01:54:43;;;;;;;;;;;19.90;74.10;;;;;;5077890;28;19916;-84
2023/07/05 01:57:22;;;;;;;;;;;19.90;74.00;;;;;;5069164;28;19952;-82
2023/07/05 01:59:55;;;;;;;;;;;20.00;74.10;;;;;;5072774;28;19913;-80
2023/07/05 02:02:26;;;;;;;;;;;20.10;74.60;;;;;;5075020;28;20293;-81
2023/07/05 02:04:52;;;;;;;;;;;20.20;74.50;;;;;;5054641;28;19908;-82
2023/07/05 02:07:23;;;;;;;;;;;20.20;74.50;;;;;;5084446;28;19900;-81
2023/07/05 02:09:49;;;;;;;;;;;20.30;74.40;;;;;;5093890;28;19988;-81
2023/07/05 02:12:14;;;;;;;;;;;20.30;74.10;;;;;;5076304;28;19915;-83
2023/07/05 02:14:40;;;;;;;;;;;20.40;74.00;;;;;;5073169;28;20015;-82
2023/07/05 02:17:06;;;;;;;;;;;20.50;74.00;;;;;;5070275;28;19916;-84
2023/07/05 02:19:31;;;;;;;;;;;20.60;74.00;;;;;;5070086;28;19908;-82
2023/07/05 02:21:57;;;;;;;;;;;20.70;74.30;;;;;;5073188;28;19913;-83
2023/07/05 02:24:23;;;;;;;;;;;20.70;74.50;;;;;;5072965;28;19916;-82
2023/07/05 02:26:52;;;;;;;;;;;20.80;74.30;;;;;;5073092;28;19962;-83
2023/07/05 02:29:18;;;;;;;;;;;21.00;74.30;;;;;;5072969;28;19916;-82
2023/07/05 02:31:43;;;;;;;;;;;21.00;74.20;;;;;;5073162;28;19909;-83
2023/07/05 02:34:10;;;;;;;;;;;21.10;74.20;;;;;;5072932;28;20019;-83
2023/07/05 02:36:36;;;;;;;;;;;21.20;74.00;;;;;;5074007;28;19920;-82
2023/07/05 02:39:01;;;;;;;;;;;21.20;74.10;;;;;;5075651;28;19919;-82
2023/07/05 02:41:27;;;;;;;;;;;21.30;74.10;;;;;;5073314;28;19915;-81
2023/07/05 02:43:53;;;;;;;;;;;21.30;74.10;;;;;;5073653;28;19975;-81
2023/07/05 02:46:18;;;;;;;;;;;21.20;74.00;;;;;;5077440;28;19909;-82
2023/07/05 02:48:45;;;;;;;;;;;21.20;74.00;;;;;;5059282;28;19943;-82
2023/07/05 02:51:11;;;;;;;;;;;21.20;73.80;;;;;;5077465;28;19923;-82
2023/07/05 02:53:36;;;;;;;;;;;21.20;73.80;;;;;;5077143;28;20025;-80
2023/07/05 02:56:04;;;;;;;;;;;21.20;73.80;;;;;;5069912;28;19913;-81
2023/07/05 02:58:29;;;;;;;;;;;21.20;73.80;;;;;;5075533;28;20385;-81
2023/07/05 03:00:55;;;;;;;;;;;21.20;73.90;;;;;;5077001;28;19909;-82
2023/07/05 03:03:21;;;;;;;;;;;21.20;74.00;;;;;;5089998;28;19916;-82
2023/07/05 03:05:57;;;;;;;;;;;21.30;74.10;;;;;;5076997;28;19947;-81
2023/07/05 03:08:25;;;;;;;;;;;21.30;73.90;;;;;;5076283;28;19908;-82
2023/07/05 03:10:58;;;;;;;;;;;21.50;73.90;;;;;;5084681;28;19931;-79
2023/07/05 03:13:26;;;;;;;;;;;21.60;74.00;;;;;;5083065;28;19909;-79
2023/07/05 03:15:51;;;;;;;;;;;21.70;73.80;;;;;;5091118;28;19908;-81
2023/07/05 03:18:17;;;;;;;;;;;21.80;73.60;;;;;;5092564;28;19969;-82
2023/07/05 03:20:46;;;;;;;;;;;21.80;73.40;;;;;;5084182;28;19949;-81
2023/07/05 03:23:13;;;;;;;;;;;21.80;73.50;;;;;;5078129;28;19959;-83
2023/07/05 03:25:39;;;;;;;;;;;21.90;73.50;;;;;;5076449;28;19935;-83
2023/07/05 03:28:04;;;;;;;;;;;21.90;73.30;;;;;;5075576;28;19912;-83
2023/07/05 03:30:31;;;;;;;;;;;22.00;73.20;;;;;;5075649;28;19924;-81
2023/07/05 03:32:57;;;;;;;;;;;22.10;72.90;;;;;;5076240;28;20003;-83
2023/07/05 03:35:23;;;;;;;;;;;22.20;72.70;;;;;;5078957;28;19994;-83
2023/07/05 03:37:48;;;;;;;;;;;22.30;72.30;;;;;;5078037;28;19916;-84
2023/07/05 03:40:14;;;;;;;;;;;22.40;72.10;;;;;;5074861;28;19919;-84
2023/07/05 03:42:40;;;;;;;;;;;22.60;71.80;;;;;;5076756;28;19916;-83
2023/07/05 03:45:06;;;;;;;;;;;22.60;71.40;;;;;;5079259;28;19912;-83
2023/07/05 03:47:32;;;;;;;;;;;22.70;71.20;;;;;;5073758;28;19915;-83
2023/07/05 03:49:57;;;;;;;;;;;22.70;71.00;;;;;;5083049;28;19916;-84
2023/07/05 03:52:23;;;;;;;;;;;22.70;71.00;;;;;;5073687;28;19909;-82
2023/07/05 03:54:49;;;;;;;;;;;22.70;70.70;;;;;;5073282;28;20365;-82
2023/07/05 03:57:14;;;;;;;;;;;22.70;70.80;;;;;;5072667;28;19959;-85
2023/07/05 03:59:40;;;;;;;;;;;22.60;70.80;;;;;;5079013;28;19909;-82
2023/07/05 04:02:06;;;;;;;;;;;22.60;70.80;;;;;;5083424;28;19912;-81
2023/07/05 04:04:32;;;;;;;;;;;22.60;70.90;;;;;;5079023;28;20370;-82
2023/07/05 04:06:57;;;;;;;;;;;22.70;70.80;;;;;;5056035;28;19915;-82
2023/07/05 04:09:24;;;;;;;;;;;22.70;70.80;;;;;;5060408;28;19920;-81
2023/07/05 04:11:50;;;;;;;;;;;22.80;70.60;;;;;;5076655;28;20250;-82
2023/07/05 04:14:16;;;;;;;;;;;22.90;70.60;;;;;;5058349;28;19912;-82
2023/07/05 04:16:41;;;;;;;;;;;23.00;70.50;;;;;;5074930;28;19961;-83
2023/07/05 04:19:08;;;;;;;;;;;23.20;70.30;;;;;;5078913;28;19912;-82
2023/07/05 04:21:34;;;;;;;;;;;23.30;69.90;;;;;;5064911;28;20385;-83
2023/07/05 04:23:59;;;;;;;;;;;23.40;69.30;;;;;;5077319;28;19908;-83
2023/07/05 04:26:27;;;;;;;;;;;23.40;68.80;;;;;;5074570;28;20011;-82
2023/07/05 04:28:53;;;;;;;;;;;23.40;68.30;;;;;;5069082;28;19909;-84
2023/07/05 04:31:23;;;;;;;;;;;23.40;67.90;;;;;;5075434;28;19962;-83
2023/07/05 04:33:49;;;;;;;;;;;23.40;67.50;;;;;;5057295;28;19976;-82
2023/07/05 04:36:15;;;;;;;;;;;23.40;67.30;;;;;;5073130;28;19995;-83
2023/07/05 04:38:40;;;;;;;;;;;23.60;67.40;;;;;;5068570;28;19909;-85
2023/07/05 04:41:06;;;;;;;;;;;23.80;67.00;;;;;;5061485;28;20327;-82
2023/07/05 04:43:32;;;;;;;;;;;24.10;66.60;;;;;;5056187;28;19916;-82
2023/07/05 04:45:58;;;;;;;;;;;24.20;65.50;;;;;;5057411;28;19909;-83
2023/07/05 04:48:25;;;;;;;;;;;24.40;65.30;;;;;;5066290;28;19992;-82
2023/07/05 04:50:52;;;;;;;;;;;24.60;64.60;;;;;;5074159;28;20377;-83
2023/07/05 04:53:21;;;;;;;;;;;24.80;64.50;;;;;;5053988;28;19909;-81
2023/07/05 04:55:51;;;;;;;;;;;25.10;64.40;;;;;;5066744;28;19951;-83
2023/07/05 04:58:18;;;;;;;;;;;25.40;64.00;;;;;;5059296;28;20728;-81
2023/07/05 05:00:49;;;;;;;;;;;25.60;63.10;;;;;;5079651;28;19931;-84
2023/07/05 05:03:22;;;;;;;;;;;25.80;62.30;;;;;;5079189;28;19956;-82
2023/07/05 05:05:48;;;;;;;;;;;25.90;61.60;;;;;;5060848;28;20369;-85
2023/07/05 05:08:16;;;;;;;;;;;26.00;61.40;;;;;;5081482;28;21425;-84
2023/07/05 05:10:42;;;;;;;;;;;26.10;61.20;;;;;;5072220;28;19988;-83
2023/07/05 05:13:08;;;;;;;;;;;26.20;60.50;;;;;;5061244;28;19982;-82
2023/07/05 05:15:37;;;;;;;;;;;26.30;60.80;;;;;;5078304;28;19909;-83
2023/07/05 05:18:03;;;;;;;;;;;26.50;60.80;;;;;;5081815;28;20267;-81
2023/07/05 05:20:31;;;;;;;;;;;26.70;60.70;;;;;;5052752;28;19925;-80
2023/07/05 05:22:58;;;;;;;;;;;26.80;60.30;;;;;;5086745;28;19912;-84
2023/07/05 05:25:24;;;;;;;;;;;26.80;59.80;;;;;;5066850;28;19916;-83
2023/07/05 05:27:50;;;;;;;;;;;26.70;59.50;;;;;;5067903;28;19943;-81
2023/07/05 05:30:16;;;;;;;;;;;26.80;58.30;;;;;;5073612;28;19967;-83
2023/07/05 05:32:41;;;;;;;;;;;26.70;56.80;;;;;;5074466;28;19948;-83
2023/07/05 05:35:08;;;;;;;;;;;26.80;57.00;;;;;;5056528;28;19909;-83
2023/07/05 05:37:34;;;;;;;;;;;26.80;56.30;;;;;;5068516;28;19944;-81
2023/07/05 05:39:59;;;;;;;;;;;26.90;55.70;;;;;;5073511;28;20377;-83
2023/07/05 05:42:25;;;;;;;;;;;27.20;56.10;;;;;;5045449;28;19919;-83
2023/07/05 05:44:51;;;;;;;;;;;27.90;54.90;;;;;;5072078;28;19916;-83
2023/07/05 05:47:17;;;;;;;;;;;29.00;54.40;;;;;;5084706;28;19916;-86
2023/07/05 05:49:42;;;;;;;;;;;30.00;53.50;;;;;;5089622;28;19916;-83
2023/07/05 05:52:08;;;;;;;;;;;30.90;51.30;;;;;;5082139;28;20417;-82
2023/07/05 05:54:35;;;;;;;;;;;31.10;47.90;;;;;;5080639;28;19967;-80
2023/07/05 05:57:01;;;;;;;;;;;31.60;46.80;;;;;;5073404;28;19963;-83
2023/07/05 05:59:27;;;;;;;;;;;32.30;46.60;;;;;;5074636;28;20016;-83
2023/07/05 06:01:53;;;;;;;;;;;32.40;45.80;;;;;;5052700;28;19952;-81
2023/07/05 06:04:19;;;;;;;;;;;32.50;45.70;;;;;;5055483;28;20003;-80
2023/07/05 06:06:45;;;;;;;;;;;32.90;46.30;;;;;;5069426;28;19909;-80
2023/07/05 06:09:10;;;;;;;;;;;33.40;45.60;;;;;;5072210;28;20397;-79
2023/07/05 06:11:36;;;;;;;;;;;33.70;45.60;;;;;;5054155;28;19931;-80
2023/07/05 06:14:02;;;;;;;;;;;33.50;44.70;;;;;;5053941;28;19994;-79
2023/07/05 06:16:28;;;;;;;;;;;32.80;44.50;;;;;;5073039;28;19909;-79
2023/07/05 06:18:53;;;;;;;;;;;32.20;44.10;;;;;;5056834;28;19966;-80
2023/07/05 06:21:19;;;;;;;;;;;32.20;44.20;;;;;;5077794;28;19909;-80
2023/07/05 06:23:45;;;;;;;;;;;33.00;43.90;;;;;;5077126;28;19947;-79
2023/07/05 06:26:10;;;;;;;;;;;34.00;43.30;;;;;;5075906;28;19959;-79
2023/07/05 06:28:36;;;;;;;;;;;;;;;;;;5075425;28;19924;-80
2023/07/05 06:31:06;;;;;;;;;;;36.00;41.10;;;;;;5075905;28;19917;-80
2023/07/05 06:33:31;;;;;;;;;;;36.60;39.90;;;;;;5076168;28;20241;-80
2023/07/05 06:36:00;;;;;;;;;;;37.50;40.00;;;;;;5076411;28;19915;-80
2023/07/05 06:38:26;;;;;;;;;;;37.90;38.10;;;;;;5076366;28;19920;-80
2023/07/05 06:40:52;;;;;;;;;;;36.70;36.50;;;;;;5080133;28;20407;-80
2023/07/05 06:43:18;;;;;;;;;;;35.50;38.40;;;;;;5076054;28;19916;-79
2023/07/05 06:45:48;;;;;;;;;;;35.90;38.80;;;;;;5077845;28;20285;-79
2023/07/05 06:48:13;;;;;;;;;;;36.60;38.20;;;;;;5063027;28;19915;-80
2023/07/05 06:50:39;;;;;;;;;;;36.00;37.30;;;;;;5077977;28;19920;-80
2023/07/05 06:53:05;;;;;;;;;;;35.60;38.10;;;;;;5079476;28;19908;-80
2023/07/05 06:55:30;;;;;;;;;;;35.90;38.70;;;;;;5060871;28;20376;-80
2023/07/05 06:57:56;;;;;;;;;;;36.80;39.00;;;;;;5077796;28;19917;-80
2023/07/05 07:00:22;;;;;;;;;;;36.70;37.70;;;;;;5078281;28;19940;-80
2023/07/05 07:02:47;;;;;;;;;;;36.50;37.70;;;;;;5062324;28;19919;-81
2023/07/05 07:05:14;;;;;;;;;;;35.60;37.90;;;;;;5065083;28;19947;-80
2023/07/05 07:07:40;;;;;;;;;;;34.60;38.70;;;;;;5079863;28;19908;-79
2023/07/05 07:10:06;;;;;;;;;;;33.40;40.00;;;;;;5062014;28;19978;-80
2023/07/05 07:12:33;;;;;;;;;;;32.80;40.80;;;;;;5069396;28;19962;-80
2023/07/05 07:14:58;;;;;;;;;;;32.60;41.30;;;;;;5055766;28;20370;-80
2023/07/05 07:17:24;;;;;;;;;;;32.20;41.80;;;;;;5055054;28;19908;-80
2023/07/05 07:19:50;;;;;;;;;;;31.60;42.80;;;;;;5057890;28;20312;-82
2023/07/05 07:22:16;;;;;;;;;;;;;;;;;;5057920;28;19919;-79
2023/07/05 07:24:42;;;;;;;;;;;31.00;43.60;;;;;;5075757;28;19909;-80
2023/07/05 07:27:08;;;;;;;;;;;30.20;44.50;;;;;;5045585;28;19974;-79
2023/07/05 07:29:35;;;;;;;;;;;29.90;45.30;;;;;;5051874;28;19909;-79
2023/07/05 07:32:04;;;;;;;;;;;30.00;45.80;;;;;;5064770;28;20416;-79
2023/07/05 07:34:31;;;;;;;;;;;30.00;46.20;;;;;;5075956;28;19908;-79
2023/07/05 07:36:57;;;;;;;;;;;29.90;46.20;;;;;;5075059;28;20328;-80
2023/07/05 07:39:22;;;;;;;;;;;30.00;46.10;;;;;;5075111;28;20007;-80
2023/07/05 07:41:48;;;;;;;;;;;30.10;46.00;;;;;;5057034;28;20316;-80
2023/07/05 07:44:17;;;;;;;;;;;30.00;46.50;;;;;;5051710;28;20000;-79
2023/07/05 07:46:42;;;;;;;;;;;30.30;46.70;;;;;;5052548;28;19963;-80
2023/07/05 07:49:09;;;;;;;;;;;30.60;46.40;;;;;;5052844;28;19948;-79
2023/07/05 07:51:35;;;;;;;;;;;30.70;46.10;;;;;;5054030;28;19917;-81
2023/07/05 07:54:02;;;;;;;;;;;30.90;45.90;;;;;;5058860;28;19916;-79
2023/07/05 07:56:29;;;;;;;;;;;31.00;45.80;;;;;;5060154;28;19909;-80
2023/07/05 07:58:55;;;;;;;;;;;31.20;45.60;;;;;;5053781;28;20028;-81
2023/07/05 08:01:32;;;;;;;;;;;32.00;45.70;;;;;;5051684;28;19983;-80
2023/07/05 08:03:57;;;;;;;;;;;;;;;;;;5047344;28;19998;-81
2023/07/05 08:06:31;;;;;;;;;;;33.00;44.60;;;;;;5053065;28;20274;-80
2023/07/05 08:08:57;;;;;;;;;;;33.30;43.40;;;;;;5052754;28;20023;-81
2023/07/05 08:11:23;;;;;;;;;;;33.20;43.00;;;;;;5053074;28;19921;-81
2023/07/05 08:13:49;;;;;;;;;;;32.80;42.40;;;;;;5052523;28;19909;-80
2023/07/05 08:16:16;;;;;;;;;;;31.90;43.20;;;;;;5073441;28;19912;-80
2023/07/05 08:18:44;;;;;;;;;;;31.30;44.00;;;;;;5057057;28;20003;-80
2023/07/05 08:21:10;;;;;;;;;;;30.90;44.90;;;;;;5071335;28;19963;-80
2023/07/05 08:23:35;;;;;;;;;;;30.60;45.40;;;;;;5070229;28;19908;-79
2023/07/05 08:26:01;;;;;;;;;;;30.60;45.70;;;;;;5056938;28;19919;-80
2023/07/05 08:28:27;;;;;;;;;;;30.50;45.80;;;;;;5053890;28;19913;-81
2023/07/05 08:30:57;;;;;;;;;;;30.30;46.20;;;;;;5070783;28;19917;-80
2023/07/05 08:33:24;;;;;;;;;;;30.50;46.60;;;;;;5061098;28;20007;-81
2023/07/05 08:35:50;;;;;;;;;;;31.20;46.40;;;;;;5086267;28;19912;-80
2023/07/05 08:38:18;;;;;;;;;;;31.60;46.00;;;;;;5089721;28;19914;-79
2023/07/05 08:40:48;;;;;;;;;;;32.20;45.60;;;;;;5087232;28;20373;-80
2023/07/05 08:43:49;;;;;;;;;;;32.50;45.10;;;;;;5079692;28;19916;-81
2023/07/05 08:46:16;;;;;;;;;;;32.30;44.90;;;;;;5030806;28;20000;-81
2023/07/05 08:48:42;;;;;;;;;;;32.20;45.30;;;;;;5012002;28;19916;-82
2023/07/05 08:51:10;;;;;;;;;;;32.20;45.60;;;;;;5025338;28;19979;-79
2023/07/05 08:53:48;;;;;;;;;;;33.00;45.80;;;;;;5017956;28;19941;-80
2023/07/05 08:56:20;;;;;;;;;;;33.70;45.10;;;;;;5011708;28;20028;-80
2023/07/05 08:58:57;;;;;;;;;;;34.30;44.40;;;;;;5018755;28;19909;-79
2023/07/05 09:01:26;;;;;;;;;;;34.20;43.70;;;;;;5031871;28;19945;-81
2023/07/05 09:03:52;;;;;;;;;;;33.60;44.00;;;;;;5014558;28;20040;-79
2023/07/05 09:06:23;;;;;;;;;;;33.10;44.70;;;;;;5031283;28;20362;-79
2023/07/05 09:08:55;;;;;;;;;;;32.40;45.20;;;;;;5032125;28;19921;-79
2023/07/05 09:11:25;;;;;;;;;;;31.80;46.10;;;;;;5032127;28;19927;-80
2023/07/05 09:14:03;;;;;;;;;;;31.40;46.80;;;;;;5031106;28;19957;-81
2023/07/05 09:16:31;;;;;;;;;;;31.30;47.80;;;;;;5011580;28;19933;-80
2023/07/05 09:19:06;;;;;;;;;;;31.70;47.40;;;;;;5026149;28;20572;-80
2023/07/05 09:21:37;;;;;;;;;;;31.80;46.80;;;;;;5061462;28;20368;-81
2023/07/05 09:24:21;;;;;;;;;;;31.80;46.90;;;;;;5054547;28;20388;-82
2023/07/05 09:26:50;;;;;;;;;;;31.80;47.10;;;;;;5073649;28;19993;-80
2023/07/05 09:29:25;;;;;;;;;;;31.80;47.20;;;;;;5073496;28;19954;-77
2023/07/05 09:31:51;;;;;;;;;;;31.60;47.60;;;;;;5073414;28;19920;-80
2023/07/05 09:34:23;;;;;;;;;;;31.90;47.70;;;;;;5073418;28;19913;-80
2023/07/05 09:36:49;;;;;;;;;;;32.30;47.30;;;;;;5055634;28;19909;-81
2023/07/05 09:39:35;;;;;;;;;;;31.80;46.90;;;;;;5066534;28;19970;-81
2023/07/05 09:42:03;;;;;;;;;;;31.50;48.20;;;;;;5072701;28;19908;-81
2023/07/05 09:44:29;;;;;;;;;;;31.20;47.90;;;;;;5053298;28;19923;-81
2023/07/05 09:46:54;;;;;;;;;;;30.90;48.50;;;;;;5074162;28;19936;-80
2023/07/05 09:49:20;;;;;;;;;;;30.40;49.20;;;;;;5074275;28;19913;-82
2023/07/05 09:51:46;;;;;;;;;;;30.40;50.30;;;;;;5053820;28;20004;-81
2023/07/05 09:54:23;;;;;;;;;;;31.40;50.10;;;;;;5065138;28;19909;-79
2023/07/05 09:57:04;;;;;;;;;;;32.00;48.80;;;;;;5075973;28;20011;-81
2023/07/05 09:59:31;;;;;;;;;;;31.80;48.20;;;;;;5078174;28;19954;-82
2023/07/05 10:02:17;;;;;;;;;;;31.30;48.50;;;;;;5060443;28;19916;-80
2023/07/05 10:04:50;;;;;;;;;;;30.50;49.40;;;;;;5075480;28;20020;-79
2023/07/05 10:07:17;;;;;;;;;;;29.80;50.50;;;;;;5076277;28;19916;-80
2023/07/05 10:09:53;;;;;;;;;;;29.40;51.50;;;;;;5056409;28;19920;-79
2023/07/05 10:12:19;;;;;;;;;;;29.20;51.60;;;;;;5053991;28;19946;-80
2023/07/05 10:14:53;;;;;;;;;;;28.90;52.30;;;;;;5072720;28;19908;-81
2023/07/05 10:17:18;;;;;;;;;;;;;;;;;;5059223;28;19909;-80
2023/07/05 10:19:44;;;;;;;;;;;;;;;;;;5052144;28;19967;-81
2023/07/05 10:22:10;;;;;;;;;;;;;;;;;;5067532;28;19915;-81
2023/07/05 10:24:36;;;;;;;;;;;;;;;;;;5075622;28;19916;-80
2023/07/05 10:27:02;;;;;;;;;;;;;;;;;;5052105;28;19913;-81
2023/07/05 10:29:28;;;;;;;;;;;;;;;;;;5052436;28;19916;-79
2023/07/05 10:31:56;;;;;;;;;;;;;;;;;;5073238;28;19956;-80
2023/07/05 10:34:23;;;;;;;;;;;;;;;;;;5072902;28;20381;-81
2023/07/05 10:36:49;;;;;;;;;;;;;;;;;;5073263;28;19908;-80
2023/07/05 10:39:22;;;;;;;;;;;28.50;52.80;;;;;;5051618;28;20022;-81
2023/07/05 10:41:49;;;;;;;;;;;27.30;56.70;;;;;;5038671;28;20301;-81
2023/07/05 10:44:24;;;;;;;;;;;26.90;57.00;;;;;;5066708;28;19908;-81
2023/07/05 10:46:50;;;;;;;;;;;26.80;56.80;;;;;;5074498;28;19915;-81
2023/07/05 10:49:17;;;;;;;;;;;26.80;56.90;;;;;;5058269;28;19909;-80
2023/07/05 10:51:47;;;;;;;;;;;26.70;57.50;;;;;;5079141;28;19916;-80
2023/07/05 10:54:16;;;;;;;;;;;26.70;57.60;;;;;;5057478;28;20289;-81
2023/07/05 10:56:42;;;;;;;;;;;26.70;57.80;;;;;;5053755;28;19908;-81
2023/07/05 10:59:12;;;;;;;;;;;26.60;58.00;;;;;;5074095;28;19912;-80
2023/07/05 11:01:42;;;;;;;;;;;26.60;58.10;;;;;;5072635;28;19916;-78
2023/07/05 11:04:11;;;;;;;;;;;26.70;58.00;;;;;;5072148;28;19909;-80
2023/07/05 11:06:40;;;;;;;;;;;26.70;58.10;;;;;;5056800;28;19908;-80
2023/07/05 11:09:07;;;;;;;;;;;26.80;58.10;;;;;;5072021;28;19920;-81
2023/07/05 11:11:38;;;;;;;;;;;26.90;58.00;;;;;;5058020;28;19916;-79
2023/07/05 11:14:04;;;;;;;;;;;26.90;58.00;;;;;;5075400;28;19995;-80
2023/07/05 11:16:30;;;;;;;;;;;26.90;57.90;;;;;;5056759;28;19956;-81
2023/07/05 11:19:00;;;;;;;;;;;27.00;58.20;;;;;;5075455;28;19913;-80
2023/07/05 11:21:33;;;;;;;;;;;27.10;58.50;;;;;;5076011;28;19923;-80
2023/07/05 11:23:59;;;;;;;;;;;27.10;58.40;;;;;;5058143;28;19915;-81
2023/07/05 11:26:38;;;;;;;;;;;27.00;59.20;;;;;;5076127;28;19913;-81
2023/07/05 11:29:22;;;;;;;;;;;26.90;59.60;;;;;;5057549;28;19994;-81
2023/07/05 11:31:48;;;;;;;;;;;26.90;59.80;;;;;;5064808;28;19999;-80
2023/07/05 11:34:29;;;;;;;;;;;26.90;59.90;;;;;;5075661;28;19915;-81
2023/07/05 11:37:01;;;;;;;;;;;27.10;59.60;;;;;;5075806;28;20006;-82
2023/07/05 11:39:33;;;;;;;;;;;27.30;59.40;;;;;;5055960;28;20409;-80
2023/07/05 11:42:14;;;;;;;;;;;27.40;58.80;;;;;;5075921;28;19999;-81
2023/07/05 11:44:41;;;;;;;;;;;27.50;58.70;;;;;;5076952;28;19908;-80
2023/07/05 11:47:22;;;;;;;;;;;27.60;58.30;;;;;;5078649;28;19912;-80
2023/07/05 11:49:53;;;;;;;;;;;27.70;57.60;;;;;;5078067;28;19920;-80
2023/07/05 11:52:24;;;;;;;;;;;27.80;57.50;;;;;;5057686;28;20004;-80
2023/07/05 11:54:58;;;;;;;;;;;27.60;56.90;;;;;;5057121;28;19999;-81
2023/07/05 11:57:25;;;;;;;;;;;27.50;57.30;;;;;;5076049;28;19988;-80
2023/07/05 11:59:59;;;;;;;;;;;27.60;57.30;;;;;;5077935;28;19991;-81
2023/07/05 12:02:43;;;;;;;;;;;27.70;57.00;;;;;;5063720;28;19988;-80
2023/07/05 12:05:11;;;;;;;;;;;27.90;56.80;;;;;;5081022;28;19913;-81
2023/07/05 12:07:37;;;;;;;;;;;28.10;56.70;;;;;;5082247;28;19916;-80
2023/07/05 12:10:04;;;;;;;;;;;28.30;56.30;;;;;;5080387;28;19927;-81
2023/07/05 12:12:36;;;;;;;;;;;28.30;54.80;;;;;;5057594;28;19909;-79
2023/07/05 12:15:02;;;;;;;;;;;28.40;54.80;;;;;;5051600;28;19944;-79
2023/07/05 12:17:29;;;;;;;;;;;28.30;53.90;;;;;;5078128;28;19915;-81
2023/07/05 12:19:56;;;;;;;;;;;28.30;54.20;;;;;;5060617;28;19918;-78
2023/07/05 12:22:26;;;;;;;;;;;28.30;53.50;;;;;;5057892;28;20326;-81
2023/07/05 12:24:54;;;;;;;;;;;28.10;53.80;;;;;;5076248;28;19912;-81
2023/07/05 12:27:29;;;;;;;;;;;27.80;54.30;;;;;;5075531;28;19908;-80
2023/07/05 12:29:56;;;;;;;;;;;27.70;54.80;;;;;;5037455;28;19913;-80
2023/07/05 12:32:24;;;;;;;;;;;27.60;55.00;;;;;;5050258;28;20354;-79
2023/07/05 12:35:09;;;;;;;;;;;27.40;55.20;;;;;;5056899;28;20437;-80
2023/07/05 12:37:34;;;;;;;;;;;27.30;55.60;;;;;;5074130;28;19920;-81
2023/07/05 12:40:32;;;;;;;;;;;27.20;55.50;;;;;;5075656;28;19908;-83
2023/07/05 12:42:59;;;;;;;;;;;27.10;55.70;;;;;;5038023;28;19941;-81
2023/07/05 12:45:29;;;;;;;;;;;27.20;56.00;;;;;;5054815;28;19920;-81
2023/07/05 12:47:55;;;;;;;;;;;27.40;56.40;;;;;;5070136;28;19913;-81
2023/07/05 12:50:22;;;;;;;;;;;27.50;56.30;;;;;;5074040;28;20713;-80
2023/07/05 12:53:02;;;;;;;;;;;27.30;55.80;;;;;;5074435;28;19912;-81
2023/07/05 12:55:28;;;;;;;;;;;;;;;;;;5064293;28;19916;-79
2023/07/05 12:57:55;;;;;;;;;;;27.10;56.20;;;;;;5077008;28;19939;-81
2023/07/05 13:00:21;;;;;;;;;;;26.70;56.60;;;;;;5062390;28;19916;-80
2023/07/05 13:02:47;;;;;;;;;;;26.60;56.60;;;;;;5080542;28;19973;-79
2023/07/05 13:05:14;;;;;;;;;;;26.50;56.70;;;;;;5080696;28;20285;-81
2023/07/05 13:07:41;;;;;;;;;;;26.40;56.80;;;;;;5081819;28;20366;-83
2023/07/05 13:10:07;;;;;;;;;;;26.30;57.00;;;;;;5056334;28;20085;-80
2023/07/05 13:12:53;;;;;;;;;;;26.30;57.30;;;;;;5071952;28;20368;-81
2023/07/05 13:15:19;;;;;;;;;;;26.30;57.60;;;;;;5052589;28;20038;-81
2023/07/05 13:17:45;;;;;;;;;;;26.40;57.90;;;;;;5072785;28;19950;-79
2023/07/05 13:20:16;;;;;;;;;;;26.30;57.60;;;;;;5052410;28;19908;-80
2023/07/05 13:22:43;;;;;;;;;;;26.30;57.80;;;;;;5071060;28;19913;-80
2023/07/05 13:25:26;;;;;;;;;;;26.20;57.60;;;;;;5065374;28;19912;-79
2023/07/05 13:27:55;;;;;;;;;;;26.30;57.80;;;;;;5055258;28;19913;-81
2023/07/05 13:30:21;;;;;;;;;;;26.30;57.50;;;;;;5077982;28;19923;-81
2023/07/05 13:32:54;;;;;;;;;;;26.30;57.50;;;;;;5046840;28;19990;-80
2023/07/05 13:35:24;;;;;;;;;;;26.30;57.90;;;;;;5073891;28;19954;-82
2023/07/05 13:37:51;;;;;;;;;;;26.30;57.90;;;;;;5073331;28;19909;-81
2023/07/05 13:40:19;;;;;;;;;;;26.50;58.30;;;;;;5073630;28;19964;-81
2023/07/05 13:42:47;;;;;;;;;;;27.30;57.70;;;;;;5073517;28;20266;-80
2023/07/05 13:45:18;;;;;;;;;;;28.40;55.10;;;;;;5073449;28;20332;-81
2023/07/05 13:47:44;;;;;;;;;;;29.10;53.80;;;;;;5056398;28;20285;-81
2023/07/05 13:50:12;;;;;;;;;;;30.00;53.40;;;;;;5055168;28;19916;-80
2023/07/05 13:52:38;;;;;;;;;;;31.10;52.80;;;;;;5054999;28;19912;-80
2023/07/05 13:55:04;;;;;;;;;;;31.80;51.60;;;;;;5052118;28;19916;-80
2023/07/05 13:57:30;;;;;;;;;;;32.40;50.50;;;;;;5046270;28;20003;-81
2023/07/05 13:59:56;;;;;;;;;;;32.40;49.10;;;;;;5055353;28;19952;-82
2023/07/05 14:02:27;;;;;;;;;;;32.50;49.10;;;;;;5074936;28;19935;-80
2023/07/05 14:04:53;;;;;;;;;;;32.60;49.00;;;;;;5080712;28;19915;-81
2023/07/05 14:07:19;;;;;;;;;;;32.80;48.30;;;;;;5069099;28;19908;-82
2023/07/05 14:09:45;;;;;;;;;;;32.30;46.70;;;;;;5080166;28;19921;-79
2023/07/05 14:12:19;;;;;;;;;;;31.90;48.20;;;;;;5053599;28;19916;-82
2023/07/05 14:14:45;;;;;;;;;;;31.80;48.30;;;;;;5056133;28;19915;-81
2023/07/05 14:17:18;;;;;;;;;;;32.20;48.60;;;;;;5056165;28;20258;-81
2023/07/05 14:19:44;;;;;;;;;;;32.60;48.30;;;;;;5055575;28;19931;-80
2023/07/05 14:22:17;;;;;;;;;;;32.80;47.60;;;;;;5055548;28;20369;-81
2023/07/05 14:24:44;;;;;;;;;;;32.30;46.90;;;;;;5041934;28;19916;-80
2023/07/05 14:27:15;;;;;;;;;;;31.50;47.50;;;;;;5060816;28;20007;-80
2023/07/05 14:29:41;;;;;;;;;;;31.20;48.20;;;;;;5072248;28;19954;-81
2023/07/05 14:32:09;;;;;;;;;;;31.20;48.50;;;;;;5055831;28;19959;-80
2023/07/05 14:34:35;;;;;;;;;;;31.30;48.60;;;;;;5076869;28;19953;-81